Time,TemperatureF,DewpointF,PressureIn,WindDirection,WindDirectionDegrees,WindSpeedMPH,WindSpeedGustMPH,Humidity,HourlyPrecipIn,Conditions,Clouds,dailyrainin,SoftwareType,DateUTC
2013-04-24 00:01:00,74.0,62.0,30.09,NNE,23,6.0,10.0,66,0.00,,,0.00,,2013-04-24 04:01:00,
2013-04-24 00:12:00,74.0,63.0,30.09,ESE,109,3.0,7.0,68,0.00,,,0.00,,2013-04-24 04:12:00,
2013-04-24 00:23:00,74.0,63.0,30.09,East,86,4.0,6.0,68,0.00,,,0.00,,2013-04-24 04:23:00,
2013-04-24 00:33:00,74.0,62.0,30.09,ESE,114,4.0,7.0,66,0.00,,,0.00,,2013-04-24 04:33:00,
2013-04-24 00:43:00,74.0,62.0,30.09,ESE,114,4.0,7.0,66,0.00,,,0.00,,2013-04-24 04:43:00,
2013-04-24 00:53:00,74.0,62.0,30.09,North,0,5.0,8.0,67,0.00,,,0.00,,2013-04-24 04:53:00,
2013-04-24 01:02:00,74.0,62.0,30.09,North,350,4.0,7.0,67,0.00,,,0.00,,2013-04-24 05:02:00,
2013-04-24 01:12:00,74.0,62.0,30.09,North,350,4.0,7.0,67,0.00,,,0.00,,2013-04-24 05:12:00,
2013-04-24 01:22:00,74.0,62.0,30.09,NE,41,5.0,6.0,66,0.00,,,0.00,,2013-04-24 05:22:00,
2013-04-24 01:32:00,73.0,61.0,30.08,NW,321,5.0,8.0,67,0.00,,,0.00,,2013-04-24 05:32:00,
2013-04-24 01:42:00,73.0,61.0,30.08,NW,321,5.0,8.0,67,0.00,,,0.00,,2013-04-24 05:42:00,
2013-04-24 01:52:00,73.0,61.0,30.07,ESE,111,4.0,7.0,67,0.00,,,0.00,,2013-04-24 05:52:00,
2013-04-24 02:02:00,73.0,62.0,30.07,NNW,339,3.0,6.0,69,0.00,,,0.00,,2013-04-24 06:02:00,
2013-04-24 02:12:00,73.0,62.0,30.07,NNW,339,3.0,6.0,69,0.00,,,0.00,,2013-04-24 06:12:00,
2013-04-24 02:22:00,73.0,63.0,30.06,West,270,5.0,7.0,70,0.00,,,0.00,,2013-04-24 06:22:00,
2013-04-24 02:33:00,73.0,63.0,30.06,WNW,295,3.0,8.0,71,0.00,,,0.00,,2013-04-24 06:33:00,
2013-04-24 02:42:00,73.0,63.0,30.06,WNW,295,3.0,8.0,71,0.00,,,0.00,,2013-04-24 06:42:00,
2013-04-24 02:52:00,73.0,62.0,30.05,East,85,4.0,7.0,68,0.00,,,0.00,,2013-04-24 06:52:00,
2013-04-24 03:02:00,72.0,61.0,30.05,ESE,120,3.0,7.0,68,0.00,,,0.00,,2013-04-24 07:02:00,
2013-04-24 03:11:00,72.0,61.0,30.05,ESE,120,3.0,7.0,68,0.00,,,0.00,,2013-04-24 07:11:00,
2013-04-24 03:22:00,73.0,62.0,30.04,SE,140,3.0,7.0,69,0.00,,,0.00,,2013-04-24 07:22:00,
2013-04-24 03:32:00,72.0,60.0,30.03,WNW,288,3.0,7.0,67,0.00,,,0.00,,2013-04-24 07:32:00,
2013-04-24 03:42:00,72.0,60.0,30.03,WNW,288,3.0,7.0,67,0.00,,,0.00,,2013-04-24 07:42:00,
2013-04-24 03:52:00,72.0,62.0,30.03,NE,45,4.0,7.0,70,0.00,,,0.00,,2013-04-24 07:52:00,
2013-04-24 04:02:00,72.0,62.0,30.03,East,96,2.0,3.0,71,0.00,,,0.00,,2013-04-24 08:02:00,
2013-04-24 04:12:00,72.0,62.0,30.03,East,96,2.0,3.0,71,0.00,,,0.00,,2013-04-24 08:12:00,
2013-04-24 04:21:00,72.0,62.0,30.03,WSW,256,2.0,7.0,72,0.00,,,0.00,,2013-04-24 08:21:00,
2013-04-24 04:33:00,72.0,62.0,30.03,East,82,3.0,5.0,72,0.00,,,0.00,,2013-04-24 08:33:00,
2013-04-24 04:42:00,72.0,62.0,30.03,East,82,3.0,5.0,72,0.00,,,0.00,,2013-04-24 08:42:00,
2013-04-24 04:52:00,72.0,62.0,30.03,NNE,22,3.0,5.0,72,0.00,,,0.00,,2013-04-24 08:52:00,
2013-04-24 05:02:00,72.0,62.0,30.04,ESE,107,4.0,7.0,72,0.00,,,0.00,,2013-04-24 09:02:00,
2013-04-24 05:11:00,72.0,62.0,30.04,ESE,107,4.0,7.0,72,0.00,,,0.00,,2013-04-24 09:11:00,
2013-04-24 05:21:00,72.0,62.0,30.04,NE,34,2.0,5.0,72,0.00,,,0.00,,2013-04-24 09:21:00,
2013-04-24 05:33:00,72.0,63.0,30.04,NNE,22,2.0,3.0,74,0.00,,,0.00,,2013-04-24 09:33:00,
2013-04-24 05:42:00,72.0,63.0,30.04,NNE,22,2.0,3.0,74,0.00,,,0.00,,2013-04-24 09:42:00,
2013-04-24 05:53:00,72.0,64.0,30.04,East,100,3.0,5.0,75,0.00,,,0.00,,2013-04-24 09:53:00,
2013-04-24 06:02:00,73.0,65.0,30.04,NNE,22,3.0,5.0,76,0.00,,,0.00,,2013-04-24 10:02:00,
2013-04-24 06:12:00,73.0,65.0,30.04,NNE,22,3.0,5.0,76,0.00,,,0.00,,2013-04-24 10:12:00,
2013-04-24 06:22:00,73.0,63.0,30.05,ESE,123,3.0,7.0,72,0.00,,,0.00,,2013-04-24 10:22:00,
2013-04-24 06:32:00,73.0,63.0,30.06,NW,315,1.0,5.0,72,0.00,,,0.00,,2013-04-24 10:32:00,
2013-04-24 06:42:00,73.0,63.0,30.06,NW,315,1.0,5.0,72,0.00,,,0.00,,2013-04-24 10:42:00,
2013-04-24 06:53:00,72.0,62.0,30.06,ESE,107,2.0,2.0,72,0.00,,,0.00,,2013-04-24 10:53:00,
2013-04-24 07:02:00,72.0,63.0,30.07,NNE,22,2.0,2.0,73,0.00,,,0.00,,2013-04-24 11:02:00,
2013-04-24 07:11:00,72.0,63.0,30.07,NNE,22,2.0,2.0,73,0.00,,,0.00,,2013-04-24 11:11:00,
2013-04-24 07:21:00,72.0,62.0,30.07,SSE,147,2.0,5.0,72,0.00,,,0.00,,2013-04-24 11:21:00,
2013-04-24 07:32:00,73.0,63.0,30.08,NE,45,0.0,3.0,72,0.00,,,0.00,,2013-04-24 11:32:00,
2013-04-24 07:42:00,73.0,63.0,30.08,NE,45,0.0,3.0,72,0.00,,,0.00,,2013-04-24 11:42:00,
2013-04-24 07:52:00,74.0,64.0,30.08,South,169,2.0,6.0,70,0.00,,,0.00,,2013-04-24 11:52:00,
2013-04-24 08:02:00,75.0,64.0,30.09,ENE,58,2.0,5.0,69,0.00,,,0.00,,2013-04-24 12:02:00,
2013-04-24 08:11:00,75.0,64.0,30.09,ENE,58,2.0,5.0,69,0.00,,,0.00,,2013-04-24 12:11:00,
2013-04-24 08:22:00,75.0,65.0,30.09,NNE,25,1.0,3.0,70,0.00,,,0.00,,2013-04-24 12:22:00,
2013-04-24 08:32:00,76.0,65.0,30.09,ESE,106,3.0,7.0,69,0.00,,,0.00,,2013-04-24 12:32:00,
2013-04-24 08:42:00,76.0,65.0,30.09,ESE,106,3.0,7.0,69,0.00,,,0.00,,2013-04-24 12:42:00,
2013-04-24 08:52:00,77.0,66.0,30.09,NNE,28,3.0,6.0,69,0.00,,,0.00,,2013-04-24 12:52:00,
2013-04-24 09:01:00,80.0,67.0,30.10,ENE,78,4.0,7.0,64,0.00,,,0.00,,2013-04-24 13:01:00,
2013-04-24 09:12:00,80.0,67.0,30.10,ENE,78,4.0,7.0,64,0.00,,,0.00,,2013-04-24 13:12:00,
2013-04-24 09:22:00,80.0,66.0,30.10,NE,34,4.0,7.0,63,0.00,,,0.00,,2013-04-24 13:22:00,
2013-04-24 09:32:00,81.0,65.0,30.11,SSE,162,3.0,6.0,59,0.00,,,0.00,,2013-04-24 13:32:00,
2013-04-24 09:41:00,81.0,65.0,30.11,SSE,162,3.0,6.0,59,0.00,,,0.00,,2013-04-24 13:41:00,
2013-04-24 09:52:00,81.0,65.0,30.11,SSE,163,8.0,8.0,58,0.00,,,0.00,,2013-04-24 13:52:00,
2013-04-24 10:01:00,81.0,64.0,30.11,ESE,106,6.0,8.0,57,0.00,,,0.00,,2013-04-24 14:01:00,
2013-04-24 10:11:00,81.0,64.0,30.11,ESE,106,6.0,8.0,57,0.00,,,0.00,,2013-04-24 14:11:00,
2013-04-24 10:21:00,82.0,64.0,30.12,ESE,112,3.0,6.0,55,0.00,,,0.00,,2013-04-24 14:21:00,
2013-04-24 10:32:00,81.0,64.0,30.12,ENE,59,4.0,9.0,56,0.00,,,0.00,,2013-04-24 14:32:00,
2013-04-24 10:41:00,81.0,64.0,30.12,ENE,59,4.0,9.0,56,0.00,,,0.00,,2013-04-24 14:41:00,
2013-04-24 10:52:00,83.0,65.0,30.12,SSE,162,4.0,7.0,54,0.00,,,0.00,,2013-04-24 14:52:00,
2013-04-24 11:01:00,83.0,65.0,30.12,ESE,113,5.0,7.0,55,0.00,,,0.00,,2013-04-24 15:01:00,
2013-04-24 11:11:00,83.0,65.0,30.12,ESE,113,5.0,7.0,55,0.00,,,0.00,,2013-04-24 15:11:00,
2013-04-24 11:22:00,83.0,65.0,30.13,ENE,78,3.0,8.0,54,0.00,,,0.00,,2013-04-24 15:22:00,
2013-04-24 11:33:00,83.0,65.0,30.13,NE,41,5.0,7.0,55,0.00,,,0.00,,2013-04-24 15:33:00,
2013-04-24 11:43:00,83.0,65.0,30.13,NE,41,5.0,7.0,55,0.00,,,0.00,,2013-04-24 15:43:00,
2013-04-24 11:53:00,85.0,65.0,30.13,NNE,14,4.0,6.0,52,0.00,,,0.00,,2013-04-24 15:53:00,
2013-04-24 12:03:00,85.0,65.0,30.12,SSW,197,5.0,8.0,52,0.00,,,0.00,,2013-04-24 16:03:00,
2013-04-24 12:12:00,85.0,65.0,30.12,SSW,197,5.0,8.0,52,0.00,,,0.00,,2013-04-24 16:12:00,
2013-04-24 12:23:00,85.0,65.0,30.12,NE,56,4.0,7.0,52,0.00,,,0.00,,2013-04-24 16:23:00,
2013-04-24 12:32:00,84.0,66.0,30.12,SSE,156,3.0,7.0,54,0.00,,,0.00,,2013-04-24 16:32:00,
2013-04-24 12:42:00,84.0,67.0,30.11,WSW,248,4.0,6.0,56,0.00,,,0.00,,2013-04-24 16:42:00,
2013-04-24 12:53:00,84.0,67.0,30.11,WSW,248,4.0,6.0,56,0.00,,,0.00,,2013-04-24 16:53:00,
2013-04-24 13:02:00,86.0,66.0,30.11,ENE,70,7.0,8.0,51,0.00,,,0.00,,2013-04-24 17:02:00,
2013-04-24 13:12:00,86.0,66.0,30.11,ENE,70,7.0,8.0,51,0.00,,,0.00,,2013-04-24 17:12:00,
2013-04-24 13:22:00,85.0,65.0,30.11,NNE,18,6.0,8.0,51,0.00,,,0.00,,2013-04-24 17:22:00,
2013-04-24 13:32:00,86.0,66.0,30.10,ESE,121,5.0,9.0,51,0.00,,,0.00,,2013-04-24 17:32:00,
2013-04-24 13:42:00,86.0,66.0,30.10,ESE,121,5.0,9.0,51,0.00,,,0.00,,2013-04-24 17:42:00,
2013-04-24 13:52:00,86.0,66.0,30.10,SSE,158,4.0,7.0,52,0.00,,,0.00,,2013-04-24 17:52:00,
2013-04-24 14:02:00,86.0,65.0,30.10,SSW,202,5.0,7.0,50,0.00,,,0.00,,2013-04-24 18:02:00,
2013-04-24 14:12:00,86.0,65.0,30.10,SSW,202,5.0,7.0,50,0.00,,,0.00,,2013-04-24 18:12:00,
2013-04-24 14:22:00,86.0,65.0,30.10,WSW,244,5.0,7.0,50,0.00,,,0.00,,2013-04-24 18:22:00,
2013-04-24 14:33:00,86.0,65.0,30.10,ESE,106,3.0,6.0,50,0.00,,,0.00,,2013-04-24 18:33:00,
2013-04-24 14:42:00,86.0,65.0,30.10,ESE,106,3.0,6.0,50,0.00,,,0.00,,2013-04-24 18:42:00,
2013-04-24 14:52:00,86.0,66.0,30.09,SSW,209,5.0,7.0,51,0.00,,,0.00,,2013-04-24 18:52:00,
2013-04-24 15:02:00,86.0,65.0,30.09,SSE,153,5.0,8.0,49,0.00,,,0.00,,2013-04-24 19:02:00,
2013-04-24 15:11:00,86.0,65.0,30.09,SSE,153,5.0,8.0,49,0.00,,,0.00,,2013-04-24 19:11:00,
2013-04-24 15:22:00,85.0,65.0,30.09,SE,129,5.0,8.0,52,0.00,,,0.00,,2013-04-24 19:22:00,
2013-04-24 15:32:00,87.0,66.0,30.09,East,95,4.0,6.0,50,0.00,,,0.00,,2013-04-24 19:32:00,
2013-04-24 15:42:00,87.0,66.0,30.09,East,95,4.0,6.0,50,0.00,,,0.00,,2013-04-24 19:42:00,
2013-04-24 15:52:00,87.0,67.0,30.09,ESE,116,5.0,7.0,51,0.00,,,0.00,,2013-04-24 19:52:00,
2013-04-24 16:02:00,85.0,65.0,30.08,WSW,248,4.0,6.0,52,0.00,,,0.00,,2013-04-24 20:02:00,
2013-04-24 16:11:00,85.0,65.0,30.08,WSW,248,4.0,6.0,52,0.00,,,0.00,,2013-04-24 20:11:00,
2013-04-24 16:22:00,86.0,66.0,30.08,SE,145,4.0,7.0,51,0.00,,,0.00,,2013-04-24 20:22:00,
2013-04-24 16:32:00,84.0,65.0,30.08,ESE,108,4.0,7.0,53,0.00,,,0.00,,2013-04-24 20:32:00,
2013-04-24 16:42:00,84.0,65.0,30.08,ESE,108,4.0,7.0,53,0.00,,,0.00,,2013-04-24 20:42:00,
2013-04-24 16:52:00,85.0,66.0,30.07,NNW,342,3.0,6.0,53,0.00,,,0.00,,2013-04-24 20:52:00,
2013-04-24 17:02:00,84.0,66.0,30.07,ESE,121,3.0,6.0,55,0.00,,,0.00,,2013-04-24 21:02:00,
2013-04-24 17:11:00,84.0,66.0,30.07,ESE,121,3.0,6.0,55,0.00,,,0.00,,2013-04-24 21:11:00,
2013-04-24 17:22:00,85.0,66.0,30.07,ENE,57,4.0,7.0,54,0.00,,,0.00,,2013-04-24 21:22:00,
2013-04-24 17:33:00,86.0,66.0,30.07,NNE,22,4.0,5.0,52,0.00,,,0.00,,2013-04-24 21:33:00,
2013-04-24 17:42:00,86.0,66.0,30.07,NNE,22,4.0,5.0,52,0.00,,,0.00,,2013-04-24 21:42:00,
2013-04-24 17:53:00,86.0,66.0,30.07,ESE,107,3.0,6.0,52,0.00,,,0.00,,2013-04-24 21:53:00,
2013-04-24 18:03:00,87.0,65.0,30.07,NE,49,4.0,7.0,49,0.00,,,0.00,,2013-04-24 22:03:00,
2013-04-24 18:12:00,87.0,65.0,30.07,NE,49,4.0,7.0,49,0.00,,,0.00,,2013-04-24 22:12:00,
2013-04-24 18:22:00,85.0,65.0,30.08,NE,52,3.0,5.0,51,0.00,,,0.00,,2013-04-24 22:22:00,
2013-04-24 18:33:00,85.0,66.0,30.09,NNE,22,3.0,6.0,54,0.00,,,0.00,,2013-04-24 22:33:00,
2013-04-24 18:42:00,85.0,66.0,30.09,NNE,22,3.0,6.0,54,0.00,,,0.00,,2013-04-24 22:42:00,
2013-04-24 18:52:00,84.0,66.0,30.08,NNE,23,2.0,3.0,54,0.00,,,0.00,,2013-04-24 22:52:00,
2013-04-24 19:02:00,84.0,66.0,30.09,SE,135,1.0,2.0,54,0.00,,,0.00,,2013-04-24 23:02:00,
2013-04-24 19:12:00,84.0,66.0,30.09,SE,135,1.0,2.0,54,0.00,,,0.00,,2013-04-24 23:12:00,
2013-04-24 19:21:00,83.0,66.0,30.09,ENE,71,2.0,6.0,56,0.00,,,0.00,,2013-04-24 23:21:00,
2013-04-24 19:32:00,82.0,66.0,30.09,East,80,3.0,5.0,59,0.00,,,0.00,,2013-04-24 23:32:00,
2013-04-24 19:42:00,82.0,66.0,30.09,East,80,3.0,5.0,59,0.00,,,0.00,,2013-04-24 23:42:00,
2013-04-24 19:52:00,80.0,66.0,30.09,West,278,3.0,6.0,62,0.00,,,0.00,,2013-04-24 23:52:00,
2013-04-24 20:02:00,78.0,65.0,30.10,North,5,3.0,5.0,65,0.00,,,0.00,,2013-04-25 00:02:00,
2013-04-24 20:12:00,78.0,65.0,30.10,North,5,3.0,5.0,65,0.00,,,0.00,,2013-04-25 00:12:00,
2013-04-24 20:22:00,77.0,65.0,30.11,NNE,31,3.0,5.0,66,0.00,,,0.00,,2013-04-25 00:22:00,
2013-04-24 20:32:00,77.0,66.0,30.11,East,82,2.0,5.0,68,0.00,,,0.00,,2013-04-25 00:32:00,
2013-04-24 20:42:00,77.0,66.0,30.11,East,82,2.0,5.0,68,0.00,,,0.00,,2013-04-25 00:42:00,
2013-04-24 20:52:00,76.0,64.0,30.11,ESE,108,2.0,6.0,67,0.00,,,0.00,,2013-04-25 00:52:00,
2013-04-24 21:01:00,76.0,65.0,30.11,East,88,3.0,5.0,70,0.00,,,0.00,,2013-04-25 01:01:00,
2013-04-24 21:11:00,76.0,65.0,30.11,East,88,3.0,5.0,70,0.00,,,0.00,,2013-04-25 01:11:00,
2013-04-24 21:23:00,76.0,65.0,30.12,SE,140,3.0,6.0,68,0.00,,,0.00,,2013-04-25 01:23:00,
2013-04-24 21:32:00,76.0,65.0,30.12,South,172,1.0,5.0,69,0.00,,,0.00,,2013-04-25 01:32:00,
2013-04-24 21:42:00,76.0,65.0,30.12,South,172,1.0,5.0,69,0.00,,,0.00,,2013-04-25 01:42:00,
2013-04-24 21:52:00,76.0,65.0,30.12,ESE,117,3.0,7.0,69,0.00,,,0.00,,2013-04-25 01:52:00,
2013-04-24 22:02:00,75.0,63.0,30.12,SW,232,1.0,2.0,67,0.00,,,0.00,,2013-04-25 02:02:00,
2013-04-24 22:11:00,75.0,63.0,30.12,SW,232,1.0,2.0,67,0.00,,,0.00,,2013-04-25 02:11:00,
2013-04-24 22:22:00,75.0,64.0,30.13,NE,44,2.0,8.0,68,0.00,,,0.00,,2013-04-25 02:22:00,
2013-04-24 22:32:00,75.0,64.0,30.14,NNE,24,3.0,7.0,69,0.00,,,0.00,,2013-04-25 02:32:00,
2013-04-24 22:42:00,75.0,64.0,30.14,NNE,24,3.0,7.0,69,0.00,,,0.00,,2013-04-25 02:42:00,
2013-04-24 22:52:00,75.0,64.0,30.14,NNE,24,3.0,7.0,69,0.00,,,0.00,,2013-04-25 02:52:00,
2013-04-24 23:02:00,75.0,64.0,30.14,NW,315,3.0,7.0,69,0.00,,,0.00,,2013-04-25 03:02:00,
2013-04-24 23:11:00,75.0,64.0,30.14,NW,315,3.0,7.0,69,0.00,,,0.00,,2013-04-25 03:11:00,
2013-04-24 23:22:00,75.0,64.0,30.14,ENE,58,3.0,6.0,69,0.00,,,0.00,,2013-04-25 03:22:00,
2013-04-24 23:33:00,74.0,63.0,30.13,ESE,109,3.0,7.0,69,0.00,,,0.00,,2013-04-25 03:33:00,
2013-04-24 23:42:00,74.0,63.0,30.13,ESE,109,3.0,7.0,69,0.00,,,0.00,,2013-04-25 03:42:00,
2013-04-24 23:52:00,75.0,64.0,30.13,NNE,22,4.0,6.0,68,0.00,,,0.00,,2013-04-25 03:52:00,